Aviation Digital Data Service (ADDS)

Output produced by METARs form (1253 UTC 22 March 2019)
found at http://www.aviationweather.gov/metar/data/
 
METAR text: VLPS 221200Z 18002KT 5000 HZ SCT024 SCT200 31/23 Q1008 NOSIG
Conditions at: VLPS (PAKSE INTL , LA) observed 1200 UTC 22 March 2019
Temperature: 31.0°C (88°F)
Dewpoint: 23.0°C (73°F) [RH = 63%]
Pressure (altimeter): 29.76 inches Hg (1008.0 mb)
Winds: from the S (180 degrees) at 2 MPH (2 knots; 1.0 m/s)
Visibility: 3 miles ( 5 km)
Ceiling: at least 12,000 feet AGL
Clouds: scattered clouds at 2400 feet AGL
scattered clouds at 20000 feet AGL
Weather: HZ  (haze)

METAR text: VLPS 221100Z 18002KT 5000 HZ SCT024 31/21 Q1006 NOSIG
Conditions at: VLPS (PAKSE INTL , LA) observed 1100 UTC 22 March 2019
Temperature: 31.0°C (88°F)
Dewpoint: 21.0°C (70°F) [RH = 55%]
Pressure (altimeter): 29.70 inches Hg (1006.0 mb)
Winds: from the S (180 degrees) at 2 MPH (2 knots; 1.0 m/s)
Visibility: 3 miles ( 5 km)
Ceiling: at least 12,000 feet AGL
Clouds: scattered clouds at 2400 feet AGL
Weather: HZ  (haze)

METAR text: VLPS 220900Z 22010KT 5000 TSRA FEW023CB SCT027 28/21 Q1008 CB,SW NOSIG
Conditions at: VLPS (PAKSE INTL , LA) observed 0900 UTC 22 March 2019
Temperature: 28.0°C (82°F)
Dewpoint: 21.0°C (70°F) [RH = 66%]
Pressure (altimeter): 29.76 inches Hg (1008.0 mb)
Winds: from the SW (220 degrees) at 12 MPH (10 knots; 5.1 m/s)
Visibility: 3 miles ( 5 km)
Ceiling: at least 12,000 feet AGL
Clouds: few clouds at 2300 feet AGL
scattered clouds at 2700 feet AGL
Weather: TSRA  (rain associated with thunderstorm(s))

METAR text: VLPS 220800Z 14004KT 6000 FEW023TCU SCT027 37/21 Q1008 NOSIG
Conditions at: VLPS (PAKSE INTL , LA) observed 0800 UTC 22 March 2019
Temperature: 37.0°C (99°F)
Dewpoint: 21.0°C (70°F) [RH = 40%]
Pressure (altimeter): 29.76 inches Hg (1008.0 mb)
Winds: from the SE (140 degrees) at 5 MPH (4 knots; 2.1 m/s)
Visibility: 4 miles ( 6 km)
Ceiling: at least 12,000 feet AGL
Clouds: few clouds at 2300 feet AGL
scattered clouds at 2700 feet AGL
Weather: no significant weather observed at this time

METAR text: VLPS 220700Z 18004KT 6000 FEW023CB SCT030 38/22 Q1008 CB,WS NOSIG
Conditions at: VLPS (PAKSE INTL , LA) observed 0700 UTC 22 March 2019
Temperature: 38.0°C (100°F)
Dewpoint: 22.0°C (72°F) [RH = 40%]
Pressure (altimeter): 29.76 inches Hg (1008.0 mb)
Winds: from the S (180 degrees) at 5 MPH (4 knots; 2.1 m/s)
Visibility: 4 miles ( 6 km)
Ceiling: at least 12,000 feet AGL
Clouds: few clouds at 2300 feet AGL
scattered clouds at 3000 feet AGL
Weather: no significant weather observed at this time

METAR text: VLPS 220600Z 14006KT 5000 HZ SCT030 37/22 Q1010 NOSIG
Conditions at: VLPS (PAKSE INTL , LA) observed 0600 UTC 22 March 2019
Temperature: 37.0°C (99°F)
Dewpoint: 22.0°C (72°F) [RH = 42%]
Pressure (altimeter): 29.82 inches Hg (1010.0 mb)
Winds: from the SE (140 degrees) at 7 MPH (6 knots; 3.1 m/s)
Visibility: 3 miles ( 5 km)
Ceiling: at least 12,000 feet AGL
Clouds: scattered clouds at 3000 feet AGL
Weather: HZ  (haze)

METAR text: VLPS 220500Z 18010KT 5000 HZ FEW030 FEW200 35/23 Q1010 NOSIG
Conditions at: VLPS (PAKSE INTL , LA) observed 0500 UTC 22 March 2019
Temperature: 35.0°C (95°F)
Dewpoint: 23.0°C (73°F) [RH = 50%]
Pressure (altimeter): 29.82 inches Hg (1010.0 mb)
Winds: from the S (180 degrees) at 12 MPH (10 knots; 5.1 m/s)
Visibility: 3 miles ( 5 km)
Ceiling: at least 12,000 feet AGL
Clouds: few clouds at 3000 feet AGL
few clouds at 20000 feet AGL
Weather: HZ  (haze)

METAR text: VLPS 220400Z 18008KT 4000 HZ SCT030 SCT200 32/23 Q1011 NOSIG
Conditions at: VLPS (PAKSE INTL , LA) observed 0400 UTC 22 March 2019
Temperature: 32.0°C (90°F)
Dewpoint: 23.0°C (73°F) [RH = 59%]
Pressure (altimeter): 29.85 inches Hg (1011.0 mb)
Winds: from the S (180 degrees) at 9 MPH (8 knots; 4.1 m/s)
Visibility: 2.49 miles (4.01 km)
Ceiling: at least 12,000 feet AGL
Clouds: scattered clouds at 3000 feet AGL
scattered clouds at 20000 feet AGL
Weather: HZ  (haze)

METAR text: VLPS 220300Z 18010KT 4000 HZ SCT030 SCT200 31/23 Q1012 NOSIG
Conditions at: VLPS (PAKSE INTL , LA) observed 0300 UTC 22 March 2019
Temperature: 31.0°C (88°F)
Dewpoint: 23.0°C (73°F) [RH = 63%]
Pressure (altimeter): 29.88 inches Hg (1012.0 mb)
Winds: from the S (180 degrees) at 12 MPH (10 knots; 5.1 m/s)
Visibility: 2.49 miles (4.01 km)
Ceiling: at least 12,000 feet AGL
Clouds: scattered clouds at 3000 feet AGL
scattered clouds at 20000 feet AGL
Weather: HZ  (haze)

METAR text: VLPS 220200Z 18010KT 3000 BR FEW030 SCT200 30/21 Q1012 NOSIG
Conditions at: VLPS (PAKSE INTL , LA) observed 0200 UTC 22 March 2019
Temperature: 30.0°C (86°F)
Dewpoint: 21.0°C (70°F) [RH = 59%]
Pressure (altimeter): 29.88 inches Hg (1012.0 mb)
Winds: from the S (180 degrees) at 12 MPH (10 knots; 5.1 m/s)
Visibility: 1.86 miles (2.99 km)
Ceiling: at least 12,000 feet AGL
Clouds: few clouds at 3000 feet AGL
scattered clouds at 20000 feet AGL
Weather: BR  (mist)

METAR text: VLPS 220100Z 18010KT 3000 BR FEW030 SCT200 29/21 Q1011 NOSIG
Conditions at: VLPS (PAKSE INTL , LA) observed 0100 UTC 22 March 2019
Temperature: 29.0°C (84°F)
Dewpoint: 21.0°C (70°F) [RH = 62%]
Pressure (altimeter): 29.85 inches Hg (1011.0 mb)
Winds: from the S (180 degrees) at 12 MPH (10 knots; 5.1 m/s)
Visibility: 1.86 miles (2.99 km)
Ceiling: at least 12,000 feet AGL
Clouds: few clouds at 3000 feet AGL
scattered clouds at 20000 feet AGL
Weather: BR  (mist)

METAR text: VLPS 220000Z 18008KT 2000 BR FEW030 SCT200 28/21 Q1011 NOSIG
Conditions at: VLPS (PAKSE INTL , LA) observed 0000 UTC 22 March 2019
Temperature: 28.0°C (82°F)
Dewpoint: 21.0°C (70°F) [RH = 66%]
Pressure (altimeter): 29.85 inches Hg (1011.0 mb)
Winds: from the S (180 degrees) at 9 MPH (8 knots; 4.1 m/s)
Visibility: 1.24 miles (2.00 km)
Ceiling: at least 12,000 feet AGL
Clouds: few clouds at 3000 feet AGL
scattered clouds at 20000 feet AGL
Weather: BR  (mist)

METAR text: VLPS 211300Z 14002KT 5000 HZ FEW030 FEW200 34/20 Q1009 NOSIG
Conditions at: VLPS (PAKSE INTL , LA) observed 1300 UTC 21 March 2019
Temperature: 34.0°C (93°F)
Dewpoint: 20.0°C (68°F) [RH = 44%]
Pressure (altimeter): 29.79 inches Hg (1009.0 mb)
Winds: from the SE (140 degrees) at 2 MPH (2 knots; 1.0 m/s)
Visibility: 3 miles ( 5 km)
Ceiling: at least 12,000 feet AGL
Clouds: few clouds at 3000 feet AGL
few clouds at 20000 feet AGL
Weather: HZ  (haze)

METAR text: VLPS 211200Z 14004KT 5000 HZ FEW030 FEW200 35/20 Q1008 NOSIG
Conditions at: VLPS (PAKSE INTL , LA) observed 1200 UTC 21 March 2019
Temperature: 35.0°C (95°F)
Dewpoint: 20.0°C (68°F) [RH = 42%]
Pressure (altimeter): 29.76 inches Hg (1008.0 mb)
Winds: from the SE (140 degrees) at 5 MPH (4 knots; 2.1 m/s)
Visibility: 3 miles ( 5 km)
Ceiling: at least 12,000 feet AGL
Clouds: few clouds at 3000 feet AGL
few clouds at 20000 feet AGL
Weather: HZ  (haze)

METAR text: VLPS 211100Z 14002KT 5000 HZ FEW030 FEW200 36/19 Q1007 NOSIG
Conditions at: VLPS (PAKSE INTL , LA) observed 1100 UTC 21 March 2019
Temperature: 36.0°C (97°F)
Dewpoint: 19.0°C (66°F) [RH = 37%]
Pressure (altimeter): 29.73 inches Hg (1007.0 mb)
Winds: from the SE (140 degrees) at 2 MPH (2 knots; 1.0 m/s)
Visibility: 3 miles ( 5 km)
Ceiling: at least 12,000 feet AGL
Clouds: few clouds at 3000 feet AGL
few clouds at 20000 feet AGL
Weather: HZ  (haze)

METAR text: VLPS 211000Z 22004KT 5000 HZ SCT030 37/19 Q1007 NOSIG
Conditions at: VLPS (PAKSE INTL , LA) observed 1000 UTC 21 March 2019
Temperature: 37.0°C (99°F)
Dewpoint: 19.0°C (66°F) [RH = 35%]
Pressure (altimeter): 29.73 inches Hg (1007.0 mb)
Winds: from the SW (220 degrees) at 5 MPH (4 knots; 2.1 m/s)
Visibility: 3 miles ( 5 km)
Ceiling: at least 12,000 feet AGL
Clouds: scattered clouds at 3000 feet AGL
Weather: HZ  (haze)

METAR text: VLPS 210900Z 22004KT 5000 HZ SCT030 38/19 Q1007 NOSIG
Conditions at: VLPS (PAKSE INTL , LA) observed 0900 UTC 21 March 2019
Temperature: 38.0°C (100°F)
Dewpoint: 19.0°C (66°F) [RH = 33%]
Pressure (altimeter): 29.73 inches Hg (1007.0 mb)
Winds: from the SW (220 degrees) at 5 MPH (4 knots; 2.1 m/s)
Visibility: 3 miles ( 5 km)
Ceiling: at least 12,000 feet AGL
Clouds: scattered clouds at 3000 feet AGL
Weather: HZ  (haze)

METAR text: VLPS 210800Z 18004KT 5000 HZ FEW030 38/21 Q1007 NOSIG
Conditions at: VLPS (PAKSE INTL , LA) observed 0800 UTC 21 March 2019
Temperature: 38.0°C (100°F)
Dewpoint: 21.0°C (70°F) [RH = 38%]
Pressure (altimeter): 29.73 inches Hg (1007.0 mb)
Winds: from the S (180 degrees) at 5 MPH (4 knots; 2.1 m/s)
Visibility: 3 miles ( 5 km)
Ceiling: at least 12,000 feet AGL
Clouds: few clouds at 3000 feet AGL
Weather: HZ  (haze)

METAR text: VLPS 210700Z 18004KT 5000 HZ FEW030 37/21 Q1009 NOSIG
Conditions at: VLPS (PAKSE INTL , LA) observed 0700 UTC 21 March 2019
Temperature: 37.0°C (99°F)
Dewpoint: 21.0°C (70°F) [RH = 40%]
Pressure (altimeter): 29.79 inches Hg (1009.0 mb)
Winds: from the S (180 degrees) at 5 MPH (4 knots; 2.1 m/s)
Visibility: 3 miles ( 5 km)
Ceiling: at least 12,000 feet AGL
Clouds: few clouds at 3000 feet AGL
Weather: HZ  (haze)

METAR text: VLPS 210600Z 14004KT 4000 HZ FEW030 FEW200 35/22 Q1010 NOSIG
Conditions at: VLPS (PAKSE INTL , LA) observed 0600 UTC 21 March 2019
Temperature: 35.0°C (95°F)
Dewpoint: 22.0°C (72°F) [RH = 47%]
Pressure (altimeter): 29.82 inches Hg (1010.0 mb)
Winds: from the SE (140 degrees) at 5 MPH (4 knots; 2.1 m/s)
Visibility: 2.49 miles (4.01 km)
Ceiling: at least 12,000 feet AGL
Clouds: few clouds at 3000 feet AGL
few clouds at 20000 feet AGL
Weather: HZ  (haze)

METAR text: VLPS 210400Z 14010KT 4000 HZ SCT200 33/22 Q1012 NOSIG
Conditions at: VLPS (PAKSE INTL , LA) observed 0400 UTC 21 March 2019
Temperature: 33.0°C (91°F)
Dewpoint: 22.0°C (72°F) [RH = 53%]
Pressure (altimeter): 29.88 inches Hg (1012.0 mb)
Winds: from the SE (140 degrees) at 12 MPH (10 knots; 5.1 m/s)
Visibility: 2.49 miles (4.01 km)
Ceiling: at least 12,000 feet AGL
Clouds: scattered clouds at 20000 feet AGL
Weather: HZ  (haze)

METAR text: VLPS 210300Z 09010KT 4000 HZ SCT200 31/22 Q1013 NOSIG
Conditions at: VLPS (PAKSE INTL , LA) observed 0300 UTC 21 March 2019
Temperature: 31.0°C (88°F)
Dewpoint: 22.0°C (72°F) [RH = 59%]
Pressure (altimeter): 29.91 inches Hg (1013.0 mb)
Winds: from the E (90 degrees) at 12 MPH (10 knots; 5.1 m/s)
Visibility: 2.49 miles (4.01 km)
Ceiling: at least 12,000 feet AGL
Clouds: scattered clouds at 20000 feet AGL
Weather: HZ  (haze)

METAR text: VLPS 210200Z 14008KT 3000 BR NSC 30/21 Q1013 NOSIG
Conditions at: VLPS (PAKSE INTL , LA) observed 0200 UTC 21 March 2019
Temperature: 30.0°C (86°F)
Dewpoint: 21.0°C (70°F) [RH = 59%]
Pressure (altimeter): 29.91 inches Hg (1013.0 mb)
Winds: from the SE (140 degrees) at 9 MPH (8 knots; 4.1 m/s)
Visibility: 1.86 miles (2.99 km)
Ceiling: at least 12,000 feet AGL
Clouds: sky clear below 12,000 feet AGL
Weather: BR  (mist)

METAR text: VLPS 210100Z 14010KT 2000 BR NSC 28/19 Q1012 NOSIG
Conditions at: VLPS (PAKSE INTL , LA) observed 0100 UTC 21 March 2019
Temperature: 28.0°C (82°F)
Dewpoint: 19.0°C (66°F) [RH = 58%]
Pressure (altimeter): 29.88 inches Hg (1012.0 mb)
Winds: from the SE (140 degrees) at 12 MPH (10 knots; 5.1 m/s)
Visibility: 1.24 miles (2.00 km)
Ceiling: at least 12,000 feet AGL
Clouds: sky clear below 12,000 feet AGL
Weather: BR  (mist)

Forecast for: VLPS (PAKSE INTL , LA)
Text: TAF VLPS 221100Z 2212/2312 14006KT 6000 FEW023 FEW050
Forecast period: 1200 UTC 22 March 2019 to 1200 UTC 23 March 2019
Forecast type: FROM: standard forecast or significant change
Winds: from the SE (140 degrees) at 7 MPH (6 knots; 3.1 m/s)
Visibility: 4 miles (6 km)
Ceiling: at least 12,000 feet AGL
Clouds: few clouds at 2300 feet AGL
few clouds at 5000 feet AGL
Weather: no significant weather forecast for this period
Text: TEMPO 2212/2215 3000 -TSRA FEW023CB BKN050
Forecast period: 1200 to 1500 UTC 22 March 2019
Forecast type: TEMPORARY: The following changes expected for less than half the time period
Visibility: 1.86 miles (2.99 km)
Ceiling: 5000 feet AGL
Clouds: few clouds at 2300 feet AGL
broken clouds at 5000 feet AGL
Weather: -TSRA  (light rain associated with thunderstorm(s))